Flight Number: EUR1060 Duration: 7:00
Departure: Dubai Int'l (OMDB) at 04:30 Distance: 2959 Nm
Arrival: Gatwick Airport (EGKK) at 11:30 Equipment: B777

Weather Information
Dubai International Airport, United Arab Emirates (OMDB) 25-15N 055-20E 5M Aug 17, 2018 - 05:00 PM EDT / 2018.08.17 2100 UTC
Wind: from the NNW (340 degrees) at 7 MPH (6 KT) (direction variable):0
Visibility: 3 mile(s):0 Temperature: 91 F (33 C) Heat index: 120.7 F (49.3 C):1 Dew Point: 86 F (30 C) Relative Humidity: 84% Pressure (altimeter): 29.41 in. Hg (0996 hPa)
ob: OMDB 172100Z 34006KT 310V020 6000 NSC 33/30 Q0996 NOSIG cycle: 21
Sunrise: 01:55 Sunset: 14:49 (UTC)

London / Gatwick Airport, United Kingdom (EGKK) 51-09N 000-11W 0M Aug 17, 2018 - 04:50 PM EDT / 2018.08.17 2050 UTC
Wind: from the SW (230 degrees) at 7 MPH (6 KT):0
Visibility: greater than 7 mile(s):0
Sky conditions: mostly cloudy Temperature: 62 F (17 C) Dew Point: 57 F (14 C) Relative Humidity: 82% Pressure (altimeter): 30.15 in. Hg (1021 hPa)
ob: EGKK 172050Z 23006KT 9999 BKN039 17/14 Q1021 cycle: 21
Sunrise: 04:55 Sunset: 19:14 (UTC)

TAF:2018/08/17 18:20 TAF EGKK 171657Z 1718/1824 25008KT 9999 SCT040 PROB30 TEMPO 1800/1807 BKN014 PROB30 TEMPO 1822/1824 BKN007

Previous Pireps for this route
Date Aircraft Flight time Fuel used Landing rate On time
2013-01-17B7777.141104940No
2013-02-02B7776.551106000Yes
2013-10-17B7778.231792230No
2013-12-26B77707.2487977-362No
2014-05-25B77708.1784347-388No
2014-09-20B7777.541220890Yes
2014-11-28B77707.0779217-342No
2015-05-23B74709.02166683-115Charter
2015-10-13B737645211-645Charter
2016-04-25B7778.151130No
2016-05-28B7776.541330000No
(pireps marked green are flown by you)

Route map